Portada
METAR-TAF:

METAR-TAF

Aeroports :

Aeroport de la Llavanera

Perpinyà, França

latitud: 42-44N, longitud: 002-52E, altitud: 43 m

Observació

L'informe es va fer fa 38 minuts, a les 14:00 UTC
Vent 11 kt del Est/Sud-Est, variant entre Est i Sud/Sud-Est
Temperatura 20°C
Humitat 49%
Pressió 1025 hPa
Visibilitat 10 km o més

METAR: LFMP 191400Z AUTO 11011KT 080V150 9999 NCD 20/09 Q1025 NOSIG

Hora: 16:38 (14:38 UTC)

Pronòstic

L'informe es va fer fa 6 hores i 38 minuts, a les 08:00 UTC
Pronòstic vàlid del 19 a les 09 UTC al 20 a les 09 UTC
Vent 10 kt del Est
Visibilitat 10 km o més
sense núvols per sota de 1500 mi sense presència de cumulonimbus.
Evolucionant progressivament
l' 19 a les 18 UTC al 19 a les 20 UTC
Vent 4 kt amb direcció variable

TAF: LFMP 190800Z 1909/2009 10010KT CAVOK BECMG 1918/1920 VRB04KT

Observacions i pronòstics meteorològics de més de 4000 aeroports (METAR i TAF).

Les estacions disponibles són els punts grocs i vermells al mapa.

Posi el ratolí al punt desitjat per veure el nom de l'estació.

Feu clic per veure les observacions i els pronòstics meteorològics.

Per canviar el mapa: feu clic els botons verds amb una creu de color negre per apropar; al botó verd amb un guió per allunyar la imatge; o en les fletxes verdes per a mapes adjacents.


METAR-TAF: